sensor_id;sensor_type;location;lat;lon;timestamp;P1;durP1;ratioP1;P2;durP2;ratioP2
13693;SDS011;6919;52.344;14.518;2023-07-20T00:01:46;0.50;;;0.50;;
13693;SDS011;6919;52.344;14.518;2023-07-20T00:04:15;0.70;;;0.70;;
13693;SDS011;6919;52.344;14.518;2023-07-20T00:06:43;0.40;;;0.40;;
13693;SDS011;6919;52.344;14.518;2023-07-20T00:09:12;0.60;;;0.60;;
13693;SDS011;6919;52.344;14.518;2023-07-20T00:11:44;0.53;;;0.53;;
13693;SDS011;6919;52.344;14.518;2023-07-20T00:14:17;0.53;;;0.53;;
13693;SDS011;6919;52.344;14.518;2023-07-20T00:16:46;0.40;;;0.40;;
13693;SDS011;6919;52.344;14.518;2023-07-20T00:19:22;0.60;;;0.60;;
13693;SDS011;6919;52.344;14.518;2023-07-20T00:21:51;0.70;;;0.60;;
13693;SDS011;6919;52.344;14.518;2023-07-20T00:24:19;0.30;;;0.30;;
13693;SDS011;6919;52.344;14.518;2023-07-20T00:26:49;0.57;;;0.57;;
13693;SDS011;6919;52.344;14.518;2023-07-20T00:29:18;0.40;;;0.40;;
13693;SDS011;6919;52.344;14.518;2023-07-20T00:31:46;0.40;;;0.37;;
13693;SDS011;6919;52.344;14.518;2023-07-20T00:34:17;0.70;;;0.70;;
13693;SDS011;6919;52.344;14.518;2023-07-20T00:36:45;0.50;;;0.50;;
13693;SDS011;6919;52.344;14.518;2023-07-20T00:39:15;0.50;;;0.50;;
13693;SDS011;6919;52.344;14.518;2023-07-20T00:41:43;0.57;;;0.57;;
13693;SDS011;6919;52.344;14.518;2023-07-20T00:44:13;0.50;;;0.50;;
13693;SDS011;6919;52.344;14.518;2023-07-20T00:46:41;0.40;;;0.40;;
13693;SDS011;6919;52.344;14.518;2023-07-20T00:49:10;0.60;;;0.60;;
13693;SDS011;6919;52.344;14.518;2023-07-20T00:51:39;0.47;;;0.47;;
13693;SDS011;6919;52.344;14.518;2023-07-20T00:54:08;0.60;;;0.60;;
13693;SDS011;6919;52.344;14.518;2023-07-20T00:56:36;0.60;;;0.60;;
13693;SDS011;6919;52.344;14.518;2023-07-20T00:59:05;0.63;;;0.63;;
13693;SDS011;6919;52.344;14.518;2023-07-20T01:01:36;1.10;;;0.77;;
13693;SDS011;6919;52.344;14.518;2023-07-20T01:04:04;0.47;;;0.47;;
13693;SDS011;6919;52.344;14.518;2023-07-20T01:06:36;0.90;;;0.77;;
13693;SDS011;6919;52.344;14.518;2023-07-20T01:09:13;0.70;;;0.70;;
13693;SDS011;6919;52.344;14.518;2023-07-20T01:11:49;0.83;;;0.83;;
13693;SDS011;6919;52.344;14.518;2023-07-20T01:14:31;0.90;;;0.80;;
13693;SDS011;6919;52.344;14.518;2023-07-20T01:17:01;1.13;;;0.70;;
13693;SDS011;6919;52.344;14.518;2023-07-20T01:19:30;0.93;;;0.70;;
13693;SDS011;6919;52.344;14.518;2023-07-20T01:21:59;0.57;;;0.57;;
13693;SDS011;6919;52.344;14.518;2023-07-20T01:24:45;0.90;;;0.90;;
13693;SDS011;6919;52.344;14.518;2023-07-20T01:30:52;0.80;;;0.60;;
13693;SDS011;6919;52.344;14.518;2023-07-20T01:33:32;2.60;;;1.20;;
13693;SDS011;6919;52.344;14.518;2023-07-20T01:36:02;0.87;;;0.87;;
13693;SDS011;6919;52.344;14.518;2023-07-20T01:38:32;0.60;;;0.60;;
13693;SDS011;6919;52.344;14.518;2023-07-20T01:41:00;0.67;;;0.67;;
13693;SDS011;6919;52.344;14.518;2023-07-20T01:43:30;0.90;;;0.90;;
13693;SDS011;6919;52.344;14.518;2023-07-20T01:45:59;1.57;;;1.03;;
13693;SDS011;6919;52.344;14.518;2023-07-20T01:48:27;0.50;;;0.50;;
13693;SDS011;6919;52.344;14.518;2023-07-20T01:50:57;0.90;;;0.90;;
13693;SDS011;6919;52.344;14.518;2023-07-20T01:53:25;0.80;;;0.80;;
13693;SDS011;6919;52.344;14.518;2023-07-20T01:55:53;0.80;;;0.80;;
13693;SDS011;6919;52.344;14.518;2023-07-20T01:58:22;1.17;;;0.80;;
13693;SDS011;6919;52.344;14.518;2023-07-20T02:00:50;1.03;;;0.77;;
13693;SDS011;6919;52.344;14.518;2023-07-20T02:03:19;1.13;;;1.03;;
13693;SDS011;6919;52.344;14.518;2023-07-20T02:05:50;1.37;;;1.27;;
13693;SDS011;6919;52.344;14.518;2023-07-20T02:08:19;1.00;;;1.00;;
13693;SDS011;6919;52.344;14.518;2023-07-20T02:10:48;1.03;;;0.93;;
13693;SDS011;6919;52.344;14.518;2023-07-20T02:13:17;0.90;;;0.90;;
13693;SDS011;6919;52.344;14.518;2023-07-20T02:15:45;0.70;;;0.70;;
13693;SDS011;6919;52.344;14.518;2023-07-20T02:18:15;0.60;;;0.60;;
13693;SDS011;6919;52.344;14.518;2023-07-20T02:20:43;1.23;;;1.13;;
13693;SDS011;6919;52.344;14.518;2023-07-20T02:23:12;1.03;;;0.93;;
13693;SDS011;6919;52.344;14.518;2023-07-20T02:25:41;1.10;;;1.00;;
13693;SDS011;6919;52.344;14.518;2023-07-20T02:28:12;0.70;;;0.70;;
13693;SDS011;6919;52.344;14.518;2023-07-20T02:30:41;1.30;;;1.17;;
13693;SDS011;6919;52.344;14.518;2023-07-20T02:33:09;1.33;;;1.23;;
13693;SDS011;6919;52.344;14.518;2023-07-20T02:35:37;2.30;;;1.47;;
13693;SDS011;6919;52.344;14.518;2023-07-20T02:38:07;1.00;;;0.90;;
13693;SDS011;6919;52.344;14.518;2023-07-20T02:40:36;1.93;;;1.20;;
13693;SDS011;6919;52.344;14.518;2023-07-20T02:43:08;1.00;;;0.90;;
13693;SDS011;6919;52.344;14.518;2023-07-20T02:45:39;1.60;;;1.50;;
13693;SDS011;6919;52.344;14.518;2023-07-20T02:48:08;1.23;;;0.97;;
13693;SDS011;6919;52.344;14.518;2023-07-20T02:50:37;1.03;;;1.03;;
13693;SDS011;6919;52.344;14.518;2023-07-20T02:53:08;0.90;;;0.90;;
13693;SDS011;6919;52.344;14.518;2023-07-20T02:55:36;1.10;;;1.00;;
13693;SDS011;6919;52.344;14.518;2023-07-20T02:58:04;1.83;;;1.40;;
13693;SDS011;6919;52.344;14.518;2023-07-20T03:00:34;1.40;;;1.30;;
13693;SDS011;6919;52.344;14.518;2023-07-20T03:03:03;1.67;;;1.50;;
13693;SDS011;6919;52.344;14.518;2023-07-20T03:05:35;2.83;;;1.60;;
13693;SDS011;6919;52.344;14.518;2023-07-20T03:08:05;1.20;;;1.10;;
13693;SDS011;6919;52.344;14.518;2023-07-20T03:10:37;1.30;;;1.20;;
13693;SDS011;6919;52.344;14.518;2023-07-20T03:13:07;1.43;;;1.33;;
13693;SDS011;6919;52.344;14.518;2023-07-20T03:15:37;1.10;;;1.00;;
13693;SDS011;6919;52.344;14.518;2023-07-20T03:18:06;1.37;;;1.03;;
13693;SDS011;6919;52.344;14.518;2023-07-20T03:20:35;2.43;;;1.63;;
13693;SDS011;6919;52.344;14.518;2023-07-20T03:23:05;1.33;;;1.23;;
13693;SDS011;6919;52.344;14.518;2023-07-20T03:25:34;2.10;;;1.90;;
13693;SDS011;6919;52.344;14.518;2023-07-20T03:28:03;1.53;;;1.43;;
13693;SDS011;6919;52.344;14.518;2023-07-20T03:30:32;1.63;;;1.27;;
13693;SDS011;6919;52.344;14.518;2023-07-20T03:33:02;1.37;;;1.27;;
13693;SDS011;6919;52.344;14.518;2023-07-20T03:35:31;1.80;;;1.57;;
13693;SDS011;6919;52.344;14.518;2023-07-20T03:37:59;1.63;;;1.50;;
13693;SDS011;6919;52.344;14.518;2023-07-20T03:40:27;1.27;;;1.17;;
13693;SDS011;6919;52.344;14.518;2023-07-20T03:42:55;2.73;;;1.40;;
13693;SDS011;6919;52.344;14.518;2023-07-20T03:45:24;1.93;;;1.50;;
13693;SDS011;6919;52.344;14.518;2023-07-20T03:47:52;2.23;;;1.63;;
13693;SDS011;6919;52.344;14.518;2023-07-20T03:50:21;1.60;;;1.43;;
13693;SDS011;6919;52.344;14.518;2023-07-20T03:52:50;2.77;;;1.50;;
13693;SDS011;6919;52.344;14.518;2023-07-20T03:55:18;1.53;;;1.43;;
13693;SDS011;6919;52.344;14.518;2023-07-20T03:57:47;1.87;;;1.67;;
13693;SDS011;6919;52.344;14.518;2023-07-20T04:00:17;2.77;;;1.77;;
13693;SDS011;6919;52.344;14.518;2023-07-20T04:02:46;2.27;;;1.83;;
13693;SDS011;6919;52.344;14.518;2023-07-20T04:05:14;1.77;;;1.53;;
13693;SDS011;6919;52.344;14.518;2023-07-20T04:07:44;2.90;;;2.10;;
13693;SDS011;6919;52.344;14.518;2023-07-20T04:10:13;1.50;;;1.40;;
13693;SDS011;6919;52.344;14.518;2023-07-20T04:12:41;3.07;;;2.50;;
13693;SDS011;6919;52.344;14.518;2023-07-20T04:15:09;2.50;;;2.20;;
13693;SDS011;6919;52.344;14.518;2023-07-20T04:17:39;2.20;;;2.00;;
13693;SDS011;6919;52.344;14.518;2023-07-20T04:20:08;2.10;;;1.90;;
13693;SDS011;6919;52.344;14.518;2023-07-20T04:22:36;3.37;;;2.27;;
13693;SDS011;6919;52.344;14.518;2023-07-20T04:25:07;3.37;;;1.97;;
13693;SDS011;6919;52.344;14.518;2023-07-20T04:27:36;2.57;;;2.03;;
13693;SDS011;6919;52.344;14.518;2023-07-20T04:30:06;4.50;;;2.37;;
13693;SDS011;6919;52.344;14.518;2023-07-20T04:32:36;1.70;;;1.60;;
13693;SDS011;6919;52.344;14.518;2023-07-20T04:35:16;2.10;;;1.90;;
13693;SDS011;6919;52.344;14.518;2023-07-20T04:38:06;2.53;;;1.53;;
13693;SDS011;6919;52.344;14.518;2023-07-20T04:40:35;1.60;;;1.40;;
13693;SDS011;6919;52.344;14.518;2023-07-20T04:43:04;1.50;;;1.40;;
13693;SDS011;6919;52.344;14.518;2023-07-20T04:45:32;1.43;;;1.33;;
13693;SDS011;6919;52.344;14.518;2023-07-20T04:48:00;2.43;;;2.23;;
13693;SDS011;6919;52.344;14.518;2023-07-20T04:50:29;2.30;;;2.10;;
13693;SDS011;6919;52.344;14.518;2023-07-20T04:52:57;2.27;;;1.90;;
13693;SDS011;6919;52.344;14.518;2023-07-20T04:55:25;1.83;;;1.30;;
13693;SDS011;6919;52.344;14.518;2023-07-20T04:57:55;1.73;;;1.47;;
13693;SDS011;6919;52.344;14.518;2023-07-20T05:00:23;1.50;;;1.23;;
13693;SDS011;6919;52.344;14.518;2023-07-20T05:02:52;1.60;;;1.50;;
13693;SDS011;6919;52.344;14.518;2023-07-20T05:05:20;3.73;;;1.93;;
13693;SDS011;6919;52.344;14.518;2023-07-20T05:07:49;2.70;;;1.67;;
13693;SDS011;6919;52.344;14.518;2023-07-20T05:10:18;1.53;;;1.43;;
13693;SDS011;6919;52.344;14.518;2023-07-20T05:12:46;2.30;;;2.00;;
13693;SDS011;6919;52.344;14.518;2023-07-20T05:15:16;3.83;;;1.87;;
13693;SDS011;6919;52.344;14.518;2023-07-20T05:17:44;1.63;;;1.37;;
13693;SDS011;6919;52.344;14.518;2023-07-20T05:20:15;1.70;;;1.60;;
13693;SDS011;6919;52.344;14.518;2023-07-20T05:22:43;1.77;;;1.67;;
13693;SDS011;6919;52.344;14.518;2023-07-20T05:25:11;1.67;;;1.50;;
13693;SDS011;6919;52.344;14.518;2023-07-20T05:27:40;2.17;;;1.80;;
13693;SDS011;6919;52.344;14.518;2023-07-20T05:30:09;1.70;;;1.60;;
13693;SDS011;6919;52.344;14.518;2023-07-20T05:32:39;1.97;;;1.83;;
13693;SDS011;6919;52.344;14.518;2023-07-20T05:35:08;2.73;;;2.27;;
13693;SDS011;6919;52.344;14.518;2023-07-20T05:37:38;1.53;;;1.37;;
13693;SDS011;6919;52.344;14.518;2023-07-20T05:40:07;3.80;;;1.97;;
13693;SDS011;6919;52.344;14.518;2023-07-20T05:42:38;1.50;;;1.40;;
13693;SDS011;6919;52.344;14.518;2023-07-20T05:45:06;1.93;;;1.73;;
13693;SDS011;6919;52.344;14.518;2023-07-20T05:47:35;1.67;;;1.57;;
13693;SDS011;6919;52.344;14.518;2023-07-20T05:50:06;2.47;;;1.60;;
13693;SDS011;6919;52.344;14.518;2023-07-20T05:52:35;1.50;;;1.40;;
13693;SDS011;6919;52.344;14.518;2023-07-20T05:55:05;1.97;;;1.60;;
13693;SDS011;6919;52.344;14.518;2023-07-20T05:57:35;2.10;;;1.50;;
13693;SDS011;6919;52.344;14.518;2023-07-20T06:00:08;2.13;;;1.93;;
13693;SDS011;6919;52.344;14.518;2023-07-20T06:02:40;1.60;;;1.50;;
13693;SDS011;6919;52.344;14.518;2023-07-20T06:05:11;3.10;;;2.13;;
13693;SDS011;6919;52.344;14.518;2023-07-20T06:07:39;1.83;;;1.73;;
13693;SDS011;6919;52.344;14.518;2023-07-20T06:10:07;2.00;;;1.60;;
13693;SDS011;6919;52.344;14.518;2023-07-20T06:12:36;2.43;;;2.23;;
13693;SDS011;6919;52.344;14.518;2023-07-20T06:15:05;2.03;;;1.50;;
13693;SDS011;6919;52.344;14.518;2023-07-20T06:17:53;2.10;;;1.90;;
13693;SDS011;6919;52.344;14.518;2023-07-20T06:20:24;2.33;;;2.00;;
13693;SDS011;6919;52.344;14.518;2023-07-20T06:22:52;2.03;;;1.83;;
13693;SDS011;6919;52.344;14.518;2023-07-20T06:25:21;2.17;;;1.40;;
13693;SDS011;6919;52.344;14.518;2023-07-20T06:27:49;2.80;;;2.10;;
13693;SDS011;6919;52.344;14.518;2023-07-20T06:30:18;2.10;;;1.90;;
13693;SDS011;6919;52.344;14.518;2023-07-20T06:32:47;1.60;;;1.50;;
13693;SDS011;6919;52.344;14.518;2023-07-20T06:35:16;2.00;;;1.67;;
13693;SDS011;6919;52.344;14.518;2023-07-20T06:37:46;2.73;;;1.47;;
13693;SDS011;6919;52.344;14.518;2023-07-20T06:40:14;1.53;;;1.43;;
13693;SDS011;6919;52.344;14.518;2023-07-20T06:42:46;2.27;;;1.73;;
13693;SDS011;6919;52.344;14.518;2023-07-20T06:45:18;1.90;;;1.70;;
13693;SDS011;6919;52.344;14.518;2023-07-20T06:47:46;1.60;;;1.50;;
13693;SDS011;6919;52.344;14.518;2023-07-20T06:50:14;1.33;;;1.23;;
13693;SDS011;6919;52.344;14.518;2023-07-20T06:52:43;1.63;;;1.53;;
13693;SDS011;6919;52.344;14.518;2023-07-20T06:55:14;2.13;;;1.60;;
13693;SDS011;6919;52.344;14.518;2023-07-20T06:57:49;1.37;;;1.27;;
13693;SDS011;6919;52.344;14.518;2023-07-20T07:00:18;1.87;;;1.20;;
13693;SDS011;6919;52.344;14.518;2023-07-20T07:02:47;1.00;;;1.00;;
13693;SDS011;6919;52.344;14.518;2023-07-20T07:05:16;2.47;;;1.40;;
13693;SDS011;6919;52.344;14.518;2023-07-20T07:07:48;1.37;;;1.27;;
13693;SDS011;6919;52.344;14.518;2023-07-20T07:10:16;1.77;;;1.20;;
13693;SDS011;6919;52.344;14.518;2023-07-20T07:12:45;1.40;;;1.17;;
13693;SDS011;6919;52.344;14.518;2023-07-20T07:15:13;1.30;;;1.20;;
13693;SDS011;6919;52.344;14.518;2023-07-20T07:17:42;1.33;;;1.10;;
13693;SDS011;6919;52.344;14.518;2023-07-20T07:20:11;1.67;;;1.57;;
13693;SDS011;6919;52.344;14.518;2023-07-20T07:22:49;1.40;;;1.30;;
13693;SDS011;6919;52.344;14.518;2023-07-20T07:25:19;1.70;;;1.30;;
13693;SDS011;6919;52.344;14.518;2023-07-20T07:27:49;0.83;;;0.83;;
13693;SDS011;6919;52.344;14.518;2023-07-20T07:30:19;1.27;;;1.00;;
13693;SDS011;6919;52.344;14.518;2023-07-20T07:32:47;1.43;;;1.00;;
13693;SDS011;6919;52.344;14.518;2023-07-20T07:35:16;2.37;;;1.20;;
13693;SDS011;6919;52.344;14.518;2023-07-20T07:37:44;1.40;;;1.17;;
13693;SDS011;6919;52.344;14.518;2023-07-20T07:40:33;3.07;;;1.23;;
13693;SDS011;6919;52.344;14.518;2023-07-20T07:43:01;1.40;;;1.30;;
13693;SDS011;6919;52.344;14.518;2023-07-20T07:45:30;1.47;;;1.13;;
13693;SDS011;6919;52.344;14.518;2023-07-20T07:47:59;0.73;;;0.73;;
13693;SDS011;6919;52.344;14.518;2023-07-20T07:50:27;1.30;;;1.20;;
13693;SDS011;6919;52.344;14.518;2023-07-20T07:52:56;1.83;;;0.90;;
13693;SDS011;6919;52.344;14.518;2023-07-20T07:55:24;1.20;;;1.10;;
13693;SDS011;6919;52.344;14.518;2023-07-20T07:57:55;0.70;;;0.70;;
13693;SDS011;6919;52.344;14.518;2023-07-20T08:00:24;0.90;;;0.90;;
13693;SDS011;6919;52.344;14.518;2023-07-20T08:02:53;0.80;;;0.80;;
13693;SDS011;6919;52.344;14.518;2023-07-20T08:05:21;0.87;;;0.80;;
13693;SDS011;6919;52.344;14.518;2023-07-20T08:07:50;0.93;;;0.90;;
13693;SDS011;6919;52.344;14.518;2023-07-20T08:10:19;0.97;;;0.97;;
13693;SDS011;6919;52.344;14.518;2023-07-20T08:12:47;0.87;;;0.80;;
13693;SDS011;6919;52.344;14.518;2023-07-20T08:15:17;1.00;;;0.90;;
13693;SDS011;6919;52.344;14.518;2023-07-20T08:17:46;1.00;;;0.73;;
13693;SDS011;6919;52.344;14.518;2023-07-20T08:20:15;0.80;;;0.80;;
13693;SDS011;6919;52.344;14.518;2023-07-20T08:22:43;0.93;;;0.83;;
13693;SDS011;6919;52.344;14.518;2023-07-20T08:25:14;1.33;;;0.90;;
13693;SDS011;6919;52.344;14.518;2023-07-20T08:27:42;1.10;;;1.00;;
13693;SDS011;6919;52.344;14.518;2023-07-20T08:30:12;0.90;;;0.90;;
13693;SDS011;6919;52.344;14.518;2023-07-20T08:32:42;1.20;;;0.97;;
13693;SDS011;6919;52.344;14.518;2023-07-20T08:35:11;0.70;;;0.70;;
13693;SDS011;6919;52.344;14.518;2023-07-20T08:37:41;1.30;;;1.03;;
13693;SDS011;6919;52.344;14.518;2023-07-20T08:40:10;1.00;;;0.90;;
13693;SDS011;6919;52.344;14.518;2023-07-20T08:42:41;0.80;;;0.80;;
13693;SDS011;6919;52.344;14.518;2023-07-20T08:45:11;0.90;;;0.90;;
13693;SDS011;6919;52.344;14.518;2023-07-20T08:47:44;1.17;;;1.07;;
13693;SDS011;6919;52.344;14.518;2023-07-20T08:50:16;0.70;;;0.70;;
13693;SDS011;6919;52.344;14.518;2023-07-20T08:52:45;0.90;;;0.90;;
13693;SDS011;6919;52.344;14.518;2023-07-20T08:55:15;1.50;;;1.30;;
13693;SDS011;6919;52.344;14.518;2023-07-20T08:57:43;1.03;;;0.93;;
13693;SDS011;6919;52.344;14.518;2023-07-20T09:00:14;1.20;;;1.10;;
13693;SDS011;6919;52.344;14.518;2023-07-20T09:02:45;1.23;;;1.13;;
13693;SDS011;6919;52.344;14.518;2023-07-20T09:05:16;1.27;;;1.17;;
13693;SDS011;6919;52.344;14.518;2023-07-20T09:07:45;1.27;;;1.17;;
13693;SDS011;6919;52.344;14.518;2023-07-20T09:10:14;1.13;;;1.03;;
13693;SDS011;6919;52.344;14.518;2023-07-20T09:12:43;1.23;;;0.53;;
13693;SDS011;6919;52.344;14.518;2023-07-20T09:15:11;0.80;;;0.80;;
13693;SDS011;6919;52.344;14.518;2023-07-20T09:17:41;0.70;;;0.70;;
13693;SDS011;6919;52.344;14.518;2023-07-20T09:20:16;0.40;;;0.40;;
13693;SDS011;6919;52.344;14.518;2023-07-20T09:22:50;0.70;;;0.70;;
13693;SDS011;6919;52.344;14.518;2023-07-20T09:25:20;0.63;;;0.63;;
13693;SDS011;6919;52.344;14.518;2023-07-20T09:27:54;1.20;;;0.60;;
13693;SDS011;6919;52.344;14.518;2023-07-20T09:30:25;0.70;;;0.70;;
13693;SDS011;6919;52.344;14.518;2023-07-20T09:32:58;1.77;;;1.00;;
13693;SDS011;6919;52.344;14.518;2023-07-20T09:35:27;0.80;;;0.80;;
13693;SDS011;6919;52.344;14.518;2023-07-20T09:38:08;1.33;;;0.77;;
13693;SDS011;6919;52.344;14.518;2023-07-20T09:40:39;1.23;;;0.90;;
13693;SDS011;6919;52.344;14.518;2023-07-20T09:43:11;0.57;;;0.53;;
13693;SDS011;6919;52.344;14.518;2023-07-20T09:45:43;0.80;;;0.80;;
13693;SDS011;6919;52.344;14.518;2023-07-20T09:48:16;0.70;;;0.70;;
13693;SDS011;6919;52.344;14.518;2023-07-20T09:50:51;1.00;;;0.90;;
13693;SDS011;6919;52.344;14.518;2023-07-20T09:53:21;0.80;;;0.60;;
13693;SDS011;6919;52.344;14.518;2023-07-20T09:55:52;0.73;;;0.60;;
13693;SDS011;6919;52.344;14.518;2023-07-20T09:58:21;0.50;;;0.50;;
13693;SDS011;6919;52.344;14.518;2023-07-20T10:00:51;0.50;;;0.50;;
13693;SDS011;6919;52.344;14.518;2023-07-20T10:03:27;0.90;;;0.70;;
13693;SDS011;6919;52.344;14.518;2023-07-20T10:06:02;0.43;;;0.43;;
13693;SDS011;6919;52.344;14.518;2023-07-20T10:08:37;0.90;;;0.50;;
13693;SDS011;6919;52.344;14.518;2023-07-20T10:11:10;0.40;;;0.40;;
13693;SDS011;6919;52.344;14.518;2023-07-20T10:13:43;0.40;;;0.40;;
13693;SDS011;6919;52.344;14.518;2023-07-20T10:16:14;0.60;;;0.60;;
13693;SDS011;6919;52.344;14.518;2023-07-20T10:18:57;0.43;;;0.43;;
13693;SDS011;6919;52.344;14.518;2023-07-20T10:21:37;0.40;;;0.40;;
13693;SDS011;6919;52.344;14.518;2023-07-20T10:24:15;0.50;;;0.50;;
13693;SDS011;6919;52.344;14.518;2023-07-20T10:26:45;0.23;;;0.23;;
13693;SDS011;6919;52.344;14.518;2023-07-20T10:29:14;0.30;;;0.30;;
13693;SDS011;6919;52.344;14.518;2023-07-20T10:31:43;0.50;;;0.50;;
13693;SDS011;6919;52.344;14.518;2023-07-20T10:34:13;0.50;;;0.50;;
13693;SDS011;6919;52.344;14.518;2023-07-20T10:36:45;0.50;;;0.50;;
13693;SDS011;6919;52.344;14.518;2023-07-20T10:39:24;0.60;;;0.60;;
13693;SDS011;6919;52.344;14.518;2023-07-20T10:42:00;0.50;;;0.50;;
13693;SDS011;6919;52.344;14.518;2023-07-20T10:44:30;0.30;;;0.30;;
13693;SDS011;6919;52.344;14.518;2023-07-20T10:46:59;0.70;;;0.50;;
13693;SDS011;6919;52.344;14.518;2023-07-20T10:49:32;0.40;;;0.40;;
13693;SDS011;6919;52.344;14.518;2023-07-20T10:52:04;0.40;;;0.40;;
13693;SDS011;6919;52.344;14.518;2023-07-20T10:54:34;0.50;;;0.50;;
13693;SDS011;6919;52.344;14.518;2023-07-20T10:57:21;0.30;;;0.30;;
13693;SDS011;6919;52.344;14.518;2023-07-20T11:00:07;0.63;;;0.60;;
13693;SDS011;6919;52.344;14.518;2023-07-20T11:02:42;0.70;;;0.70;;
13693;SDS011;6919;52.344;14.518;2023-07-20T11:05:34;0.50;;;0.50;;
13693;SDS011;6919;52.344;14.518;2023-07-20T11:08:06;0.20;;;0.20;;
13693;SDS011;6919;52.344;14.518;2023-07-20T11:10:38;0.33;;;0.33;;
13693;SDS011;6919;52.344;14.518;2023-07-20T11:13:16;0.53;;;0.40;;
13693;SDS011;6919;52.344;14.518;2023-07-20T11:16:03;0.20;;;0.20;;
13693;SDS011;6919;52.344;14.518;2023-07-20T11:18:33;0.77;;;0.47;;
13693;SDS011;6919;52.344;14.518;2023-07-20T11:21:10;0.40;;;0.40;;
13693;SDS011;6919;52.344;14.518;2023-07-20T11:23:39;0.30;;;0.30;;
13693;SDS011;6919;52.344;14.518;2023-07-20T11:26:07;0.40;;;0.40;;
13693;SDS011;6919;52.344;14.518;2023-07-20T11:28:37;0.40;;;0.40;;
13693;SDS011;6919;52.344;14.518;2023-07-20T11:31:06;0.30;;;0.30;;
13693;SDS011;6919;52.344;14.518;2023-07-20T11:33:34;0.40;;;0.40;;
13693;SDS011;6919;52.344;14.518;2023-07-20T11:36:03;0.30;;;0.30;;
13693;SDS011;6919;52.344;14.518;2023-07-20T11:38:54;0.30;;;0.30;;
13693;SDS011;6919;52.344;14.518;2023-07-20T11:41:22;0.40;;;0.40;;
13693;SDS011;6919;52.344;14.518;2023-07-20T11:43:51;0.30;;;0.30;;
13693;SDS011;6919;52.344;14.518;2023-07-20T11:46:21;0.33;;;0.33;;
13693;SDS011;6919;52.344;14.518;2023-07-20T11:48:55;0.30;;;0.30;;
13693;SDS011;6919;52.344;14.518;2023-07-20T11:51:26;0.40;;;0.40;;
13693;SDS011;6919;52.344;14.518;2023-07-20T11:53:56;0.20;;;0.20;;
13693;SDS011;6919;52.344;14.518;2023-07-20T11:56:26;0.20;;;0.20;;
13693;SDS011;6919;52.344;14.518;2023-07-20T11:58:54;0.30;;;0.30;;
13693;SDS011;6919;52.344;14.518;2023-07-20T12:01:25;0.40;;;0.40;;
13693;SDS011;6919;52.344;14.518;2023-07-20T12:03:55;0.20;;;0.20;;
13693;SDS011;6919;52.344;14.518;2023-07-20T12:06:24;0.20;;;0.20;;
13693;SDS011;6919;52.344;14.518;2023-07-20T12:08:57;0.20;;;0.20;;
13693;SDS011;6919;52.344;14.518;2023-07-20T12:11:33;0.20;;;0.20;;
13693;SDS011;6919;52.344;14.518;2023-07-20T12:14:03;0.20;;;0.20;;
13693;SDS011;6919;52.344;14.518;2023-07-20T12:16:43;0.43;;;0.43;;
13693;SDS011;6919;52.344;14.518;2023-07-20T12:19:12;0.30;;;0.30;;
13693;SDS011;6919;52.344;14.518;2023-07-20T12:21:41;0.20;;;0.20;;
13693;SDS011;6919;52.344;14.518;2023-07-20T12:24:11;0.40;;;0.20;;
13693;SDS011;6919;52.344;14.518;2023-07-20T12:26:39;0.13;;;0.13;;
13693;SDS011;6919;52.344;14.518;2023-07-20T12:29:07;0.20;;;0.20;;
13693;SDS011;6919;52.344;14.518;2023-07-20T12:31:36;0.30;;;0.30;;
13693;SDS011;6919;52.344;14.518;2023-07-20T12:34:05;0.30;;;0.30;;
13693;SDS011;6919;52.344;14.518;2023-07-20T12:36:34;0.20;;;0.20;;
13693;SDS011;6919;52.344;14.518;2023-07-20T12:39:03;0.20;;;0.20;;
13693;SDS011;6919;52.344;14.518;2023-07-20T12:41:32;0.20;;;0.20;;
13693;SDS011;6919;52.344;14.518;2023-07-20T12:44:01;0.60;;;0.40;;
13693;SDS011;6919;52.344;14.518;2023-07-20T12:46:29;0.30;;;0.30;;
13693;SDS011;6919;52.344;14.518;2023-07-20T12:49:01;0.30;;;0.30;;
13693;SDS011;6919;52.344;14.518;2023-07-20T12:51:29;0.30;;;0.30;;
13693;SDS011;6919;52.344;14.518;2023-07-20T12:53:57;0.20;;;0.20;;
13693;SDS011;6919;52.344;14.518;2023-07-20T12:56:26;0.23;;;0.13;;
13693;SDS011;6919;52.344;14.518;2023-07-20T12:58:58;0.30;;;0.30;;
13693;SDS011;6919;52.344;14.518;2023-07-20T13:01:28;0.30;;;0.30;;
13693;SDS011;6919;52.344;14.518;2023-07-20T13:03:57;0.40;;;0.40;;
13693;SDS011;6919;52.344;14.518;2023-07-20T13:06:29;0.77;;;0.50;;
13693;SDS011;6919;52.344;14.518;2023-07-20T13:08:57;1.00;;;0.40;;
13693;SDS011;6919;52.344;14.518;2023-07-20T13:11:26;0.30;;;0.30;;
13693;SDS011;6919;52.344;14.518;2023-07-20T13:13:54;0.30;;;0.30;;
13693;SDS011;6919;52.344;14.518;2023-07-20T13:16:23;0.30;;;0.30;;
13693;SDS011;6919;52.344;14.518;2023-07-20T13:18:52;0.30;;;0.30;;
13693;SDS011;6919;52.344;14.518;2023-07-20T13:21:20;0.40;;;0.40;;
13693;SDS011;6919;52.344;14.518;2023-07-20T13:23:52;0.30;;;0.30;;
13693;SDS011;6919;52.344;14.518;2023-07-20T13:26:20;0.30;;;0.30;;
13693;SDS011;6919;52.344;14.518;2023-07-20T13:28:49;0.30;;;0.20;;
13693;SDS011;6919;52.344;14.518;2023-07-20T13:31:17;0.20;;;0.20;;
13693;SDS011;6919;52.344;14.518;2023-07-20T13:33:51;0.30;;;0.30;;
13693;SDS011;6919;52.344;14.518;2023-07-20T13:36:25;0.30;;;0.30;;
13693;SDS011;6919;52.344;14.518;2023-07-20T13:38:55;0.30;;;0.30;;
13693;SDS011;6919;52.344;14.518;2023-07-20T13:41:25;0.80;;;0.43;;
13693;SDS011;6919;52.344;14.518;2023-07-20T13:43:55;0.10;;;0.10;;
13693;SDS011;6919;52.344;14.518;2023-07-20T13:46:24;0.20;;;0.20;;
13693;SDS011;6919;52.344;14.518;2023-07-20T13:48:56;0.20;;;0.20;;
13693;SDS011;6919;52.344;14.518;2023-07-20T13:51:24;0.40;;;0.40;;
13693;SDS011;6919;52.344;14.518;2023-07-20T13:53:53;0.17;;;0.17;;
13693;SDS011;6919;52.344;14.518;2023-07-20T13:56:23;0.30;;;0.30;;
13693;SDS011;6919;52.344;14.518;2023-07-20T13:58:51;0.30;;;0.30;;
13693;SDS011;6919;52.344;14.518;2023-07-20T14:01:20;0.33;;;0.33;;
13693;SDS011;6919;52.344;14.518;2023-07-20T14:03:52;0.23;;;0.23;;
13693;SDS011;6919;52.344;14.518;2023-07-20T14:06:22;0.30;;;0.30;;
13693;SDS011;6919;52.344;14.518;2023-07-20T14:08:55;0.30;;;0.30;;
13693;SDS011;6919;52.344;14.518;2023-07-20T14:11:24;0.30;;;0.30;;
13693;SDS011;6919;52.344;14.518;2023-07-20T14:13:55;0.30;;;0.30;;
13693;SDS011;6919;52.344;14.518;2023-07-20T14:16:25;0.20;;;0.20;;
13693;SDS011;6919;52.344;14.518;2023-07-20T14:19:06;0.30;;;0.30;;
13693;SDS011;6919;52.344;14.518;2023-07-20T14:21:36;0.20;;;0.20;;
13693;SDS011;6919;52.344;14.518;2023-07-20T14:24:07;0.22;;;0.22;;
13693;SDS011;6919;52.344;14.518;2023-07-20T14:26:35;0.22;;;0.22;;
13693;SDS011;6919;52.344;14.518;2023-07-20T14:29:05;0.30;;;0.30;;
13693;SDS011;6919;52.344;14.518;2023-07-20T14:31:33;0.30;;;0.30;;
13693;SDS011;6919;52.344;14.518;2023-07-20T14:34:02;0.20;;;0.20;;
13693;SDS011;6919;52.344;14.518;2023-07-20T14:36:30;0.20;;;0.20;;
13693;SDS011;6919;52.344;14.518;2023-07-20T14:39:01;0.30;;;0.30;;
13693;SDS011;6919;52.344;14.518;2023-07-20T14:41:30;0.25;;;0.25;;
13693;SDS011;6919;52.344;14.518;2023-07-20T14:43:58;0.43;;;0.43;;
13693;SDS011;6919;52.344;14.518;2023-07-20T14:46:26;0.10;;;0.10;;
13693;SDS011;6919;52.344;14.518;2023-07-20T14:48:55;0.10;;;0.10;;
13693;SDS011;6919;52.344;14.518;2023-07-20T14:51:23;0.17;;;0.17;;
13693;SDS011;6919;52.344;14.518;2023-07-20T14:54:05;0.10;;;0.10;;
13693;SDS011;6919;52.344;14.518;2023-07-20T14:56:34;0.43;;;0.20;;
13693;SDS011;6919;52.344;14.518;2023-07-20T14:59:03;0.08;;;0.08;;
13693;SDS011;6919;52.344;14.518;2023-07-20T15:01:32;0.10;;;0.10;;
13693;SDS011;6919;52.344;14.518;2023-07-20T15:04:00;0.10;;;0.10;;
13693;SDS011;6919;52.344;14.518;2023-07-20T15:06:29;0.10;;;0.10;;
13693;SDS011;6919;52.344;14.518;2023-07-20T15:08:58;0.20;;;0.20;;
13693;SDS011;6919;52.344;14.518;2023-07-20T15:11:28;0.20;;;0.20;;